createdAt,value
2022-11-02T00:00:03.478Z,2.85
2022-11-02T00:02:07.556Z,1.02
2022-11-02T00:04:11.265Z,0.95
2022-11-02T00:06:14.017Z,1.00
2022-11-02T00:08:16.638Z,0.35
2022-11-02T00:10:20.376Z,3.38
2022-11-02T00:12:23.030Z,0.32
2022-11-02T00:14:25.814Z,0.90
2022-11-02T00:16:28.382Z,0.65
2022-11-02T00:18:31.761Z,1.17
2022-11-02T00:20:36.626Z,0.52
2022-11-02T00:22:39.582Z,0.50
2022-11-02T00:24:42.756Z,0.28
2022-11-02T00:26:45.341Z,0.38
2022-11-02T00:28:48.117Z,0.50
2022-11-02T00:30:50.795Z,0.20
2022-11-02T00:32:53.384Z,0.32
2022-11-02T00:34:56.006Z,0.30
2022-11-02T00:36:58.717Z,0.65
2022-11-02T00:39:01.296Z,0.55
2022-11-02T00:41:04.103Z,0.32
2022-11-02T00:43:06.910Z,0.73
2022-11-02T00:45:09.978Z,0.25
2022-11-02T00:47:12.597Z,0.30
2022-11-02T00:49:15.269Z,1.10
2022-11-02T00:51:17.910Z,0.40
2022-11-02T00:53:20.543Z,0.85
2022-11-02T00:55:23.492Z,0.60
2022-11-02T00:57:26.299Z,0.43
2022-11-02T00:59:28.894Z,1.40
2022-11-02T01:01:31.743Z,1.50
2022-11-02T01:03:34.625Z,0.35
2022-11-02T01:05:38.085Z,0.20
2022-11-02T01:07:41.056Z,0.20
2022-11-02T01:09:43.650Z,0.63
2022-11-02T01:11:46.254Z,3.35
2022-11-02T01:13:51.334Z,0.38
2022-11-02T01:15:53.953Z,0.55
2022-11-02T01:17:56.705Z,0.73
2022-11-02T01:19:59.610Z,0.55
2022-11-02T01:22:02.201Z,0.85
2022-11-02T01:24:05.195Z,0.65
2022-11-02T01:26:09.827Z,0.80
2022-11-02T01:28:12.425Z,0.30
2022-11-02T01:30:15.097Z,0.50
2022-11-02T01:32:17.720Z,1.90
2022-11-02T01:34:21.174Z,0.45
2022-11-02T01:36:23.961Z,0.43
2022-11-02T01:38:26.680Z,0.77
2022-11-02T01:40:37.981Z,0.57
2022-11-02T01:42:40.659Z,0.60
2022-11-02T01:44:44.274Z,0.20
2022-11-02T01:46:47.504Z,0.20
2022-11-02T01:48:58.843Z,0.20
2022-11-02T01:51:05.965Z,0.43
2022-11-02T01:53:09.262Z,0.55
2022-11-02T01:55:19.496Z,0.82
2022-11-02T01:57:23.418Z,1.42
2022-11-02T01:59:33.668Z,0.20
2022-11-02T02:01:36.467Z,1.73
2022-11-02T02:03:40.294Z,2.28
2022-11-02T02:05:47.894Z,0.30
2022-11-02T02:07:51.704Z,0.30
2022-11-02T02:09:55.826Z,0.75
2022-11-02T02:11:58.474Z,0.20
2022-11-02T02:14:12.271Z,2.15
2022-11-02T02:16:21.870Z,1.10
2022-11-02T02:18:41.078Z,1.05
2022-11-02T02:21:07.011Z,5.13
2022-11-02T02:23:39.662Z,0.50
2022-11-02T02:25:53.247Z,0.75
2022-11-02T02:28:20.903Z,1.38
2022-11-02T02:30:23.868Z,0.98
2022-11-02T02:32:39.072Z,0.30
2022-11-02T02:35:04.423Z,0.32
2022-11-02T02:37:20.775Z,0.35
2022-11-02T02:39:43.376Z,0.88
2022-11-02T02:41:56.735Z,0.95
2022-11-02T02:44:03.328Z,0.52
2022-11-02T02:46:11.744Z,1.00
2022-11-02T02:48:22.177Z,0.63
2022-11-02T02:50:34.184Z,0.95
2022-11-02T02:54:44.318Z,0.75
2022-11-02T02:56:57.461Z,0.45
2022-11-02T02:59:22.010Z,0.70
2022-11-02T03:01:26.389Z,1.65
2022-11-02T03:03:30.911Z,0.38
2022-11-02T03:05:37.466Z,0.90
2022-11-02T03:07:40.129Z,1.05
2022-11-02T03:09:57.631Z,0.50
2022-11-02T03:12:30.521Z,0.70
2022-11-02T03:14:55.896Z,1.23
2022-11-02T03:17:18.354Z,0.55
2022-11-02T03:19:28.930Z,0.60
2022-11-02T03:21:43.788Z,0.80
2022-11-02T03:23:53.013Z,1.20
2022-11-02T03:25:58.252Z,0.95
2022-11-02T03:28:10.433Z,0.55
2022-11-02T03:30:18.253Z,1.05
2022-11-02T03:32:27.989Z,0.80
2022-11-02T03:34:44.058Z,1.15
2022-11-02T03:36:57.348Z,0.90
2022-11-02T03:39:07.103Z,0.43
2022-11-02T03:41:10.622Z,0.60
2022-11-02T03:43:15.267Z,1.02
2022-11-02T03:45:27.701Z,0.52
2022-11-02T03:47:33.319Z,0.70
2022-11-02T03:49:39.087Z,0.63
2022-11-02T03:51:45.246Z,0.90
2022-11-02T03:54:13.759Z,1.13
2022-11-02T03:56:23.359Z,0.55
2022-11-02T03:58:26.090Z,0.50
2022-11-02T04:00:36.163Z,0.90
2022-11-02T04:02:41.245Z,1.05
2022-11-02T04:04:51.853Z,0.80
2022-11-02T04:06:54.997Z,0.50
2022-11-02T04:08:57.658Z,0.35
2022-11-02T04:11:18.671Z,0.55
2022-11-02T04:13:39.453Z,6.07
2022-11-02T04:15:42.863Z,1.15
2022-11-02T04:18:11.312Z,1.35
2022-11-02T04:20:14.017Z,0.95
2022-11-02T04:22:36.324Z,3.63
2022-11-02T04:24:57.824Z,2.60
2022-11-02T04:27:00.395Z,0.65
2022-11-02T04:29:03.702Z,0.47
2022-11-02T04:31:06.359Z,1.23
2022-11-02T04:33:27.589Z,0.93
2022-11-02T04:35:31.269Z,0.90
2022-11-02T04:38:00.256Z,1.70
2022-11-02T04:40:02.901Z,1.13
2022-11-02T04:42:06.145Z,1.77
2022-11-02T04:44:10.785Z,1.48
2022-11-02T04:46:13.367Z,10.45
2022-11-02T04:48:16.086Z,0.93
2022-11-02T04:50:18.966Z,1.10
2022-11-02T04:52:21.600Z,1.35
2022-11-02T04:54:24.344Z,0.68
2022-11-02T04:56:28.232Z,1.10
2022-11-02T04:58:30.906Z,0.60
2022-11-02T05:00:33.647Z,1.27
2022-11-02T05:02:36.506Z,0.90
2022-11-02T05:04:39.242Z,0.82
2022-11-02T05:06:41.913Z,0.82
2022-11-02T05:08:44.865Z,1.15
2022-11-02T05:10:47.461Z,0.90
2022-11-02T05:12:57.685Z,0.93
2022-11-02T05:15:00.277Z,2.80
2022-11-02T05:17:03.210Z,0.82
2022-11-02T05:19:08.454Z,1.35
2022-11-02T05:21:13.649Z,1.80
2022-11-02T05:23:16.227Z,0.82
2022-11-02T05:25:19.050Z,0.95
2022-11-02T05:27:21.660Z,0.82
2022-11-02T05:29:24.249Z,0.63
2022-11-02T05:31:26.997Z,0.77
2022-11-02T05:33:31.205Z,1.05
2022-11-02T05:35:33.790Z,0.50
2022-11-02T05:37:36.629Z,1.60
2022-11-02T05:39:39.231Z,0.50
2022-11-02T05:41:41.897Z,0.40
2022-11-02T05:43:44.577Z,2.30
2022-11-02T05:45:53.222Z,0.40
2022-11-02T05:47:56.964Z,0.47
2022-11-02T05:49:59.661Z,0.98
2022-11-02T05:52:02.238Z,0.85
2022-11-02T05:54:05.074Z,0.40
2022-11-02T05:56:10.277Z,1.00
2022-11-02T05:58:12.957Z,0.20
2022-11-02T06:00:15.877Z,0.20
2022-11-02T06:02:20.848Z,0.60
2022-11-02T06:04:26.136Z,0.80
2022-11-02T06:06:28.764Z,0.20
2022-11-02T06:08:35.759Z,0.80
2022-11-02T06:10:38.758Z,1.08
2022-11-02T06:12:41.304Z,0.38
2022-11-02T06:14:43.987Z,0.65
2022-11-02T06:16:46.629Z,0.52
2022-11-02T06:18:49.301Z,0.65
2022-11-02T06:20:51.904Z,0.43
2022-11-02T06:22:54.582Z,0.80
2022-11-02T06:24:57.325Z,1.00
2022-11-02T06:27:00.167Z,1.65
2022-11-02T06:29:03.217Z,1.40
2022-11-02T06:31:06.293Z,0.35
2022-11-02T06:33:09.073Z,0.30
2022-11-02T06:35:12.623Z,1.20
2022-11-02T06:37:15.349Z,0.30
2022-11-02T06:39:17.977Z,0.60
2022-11-02T06:41:20.584Z,0.75
2022-11-02T06:43:23.960Z,1.15
2022-11-02T06:45:27.058Z,0.60
2022-11-02T06:47:32.350Z,0.57
2022-11-02T06:49:35.011Z,0.63
2022-11-02T06:51:37.694Z,0.85
2022-11-02T06:53:40.334Z,0.38
2022-11-02T06:55:43.093Z,1.08
2022-11-02T06:57:46.204Z,0.50
2022-11-02T06:59:53.689Z,0.45
2022-11-02T07:01:56.869Z,0.65
2022-11-02T07:03:59.744Z,0.98
2022-11-02T07:06:03.944Z,0.75
2022-11-02T07:08:06.717Z,0.40
2022-11-02T07:10:10.785Z,1.33
2022-11-02T07:12:13.531Z,0.60
2022-11-02T07:14:16.132Z,0.73
2022-11-02T07:16:18.768Z,0.90
2022-11-02T07:18:22.330Z,0.75
2022-11-02T07:20:25.135Z,0.20
2022-11-02T07:22:28.484Z,0.25
2022-11-02T07:24:31.444Z,1.15
2022-11-02T07:26:34.197Z,0.93
2022-11-02T07:28:38.487Z,0.93
2022-11-02T07:30:41.497Z,0.50
2022-11-02T07:32:46.005Z,0.47
2022-11-02T07:34:48.984Z,0.75
2022-11-02T07:36:51.793Z,0.95
2022-11-02T07:38:54.357Z,0.50
2022-11-02T07:40:57.924Z,1.00
2022-11-02T07:43:02.108Z,2.47
2022-11-02T07:45:05.271Z,0.63
2022-11-02T07:47:08.123Z,0.47
2022-11-02T07:49:11.051Z,0.40
2022-11-02T07:51:14.448Z,5.88
2022-11-02T07:53:17.465Z,0.95
2022-11-02T07:55:23.095Z,0.50
2022-11-02T07:57:25.901Z,0.20
2022-11-02T07:59:28.517Z,0.30
2022-11-02T08:01:31.609Z,2.13
2022-11-02T08:03:34.257Z,0.32
2022-11-02T08:05:40.005Z,0.43
2022-11-02T08:07:43.887Z,0.40
2022-11-02T08:09:46.518Z,0.50
2022-11-02T08:11:49.199Z,0.68
2022-11-02T08:13:51.900Z,0.70
2022-11-02T08:15:55.321Z,0.38
2022-11-02T08:18:07.323Z,0.55
2022-11-02T08:22:13.722Z,0.60
2022-11-02T08:24:16.300Z,0.47
2022-11-02T08:26:19.004Z,2.70
2022-11-02T08:28:32.276Z,0.17
2022-11-02T08:30:34.928Z,1.33
2022-11-02T08:32:37.722Z,1.05
2022-11-02T08:34:40.404Z,0.75
2022-11-02T08:36:42.994Z,0.70
2022-11-02T08:38:45.756Z,0.52
2022-11-02T08:40:49.591Z,0.70
2022-11-02T08:43:06.264Z,0.60
2022-11-02T08:45:09.364Z,0.70
2022-11-02T08:47:12.177Z,0.35
2022-11-02T08:49:14.842Z,1.95
2022-11-02T08:51:17.537Z,0.30
2022-11-02T08:53:20.154Z,0.70
2022-11-02T08:55:22.783Z,1.65
2022-11-02T08:57:25.584Z,1.63
2022-11-02T08:59:28.215Z,2.83
2022-11-02T09:01:31.035Z,1.25
2022-11-02T09:03:33.705Z,1.42
2022-11-02T09:05:41.289Z,2.20
2022-11-02T09:07:43.873Z,0.82
2022-11-02T09:09:46.696Z,2.38
2022-11-02T09:11:50.750Z,1.70
2022-11-02T09:13:56.810Z,1.63
2022-11-02T09:16:00.565Z,1.55
2022-11-02T09:18:04.331Z,0.80
2022-11-02T09:20:07.671Z,0.60
2022-11-02T09:22:10.400Z,0.60
2022-11-02T09:24:14.723Z,1.30
2022-11-02T09:26:17.699Z,1.33
2022-11-02T09:28:20.716Z,1.52
2022-11-02T09:30:24.965Z,1.83
2022-11-02T09:32:27.709Z,1.55
2022-11-02T09:34:30.482Z,1.10
2022-11-02T09:36:34.380Z,3.13
2022-11-02T09:38:37.020Z,1.17
2022-11-02T09:41:22.657Z,0.82
2022-11-02T09:43:57.280Z,1.25
2022-11-02T09:46:08.148Z,2.03
2022-11-02T09:48:19.869Z,0.93
2022-11-02T09:50:29.776Z,0.88
2022-11-02T09:52:38.649Z,0.50
2022-11-02T09:54:49.715Z,1.70
2022-11-02T09:56:56.742Z,1.00
2022-11-02T09:59:07.261Z,0.60
2022-11-02T10:01:23.163Z,1.80
2022-11-02T10:03:49.374Z,0.82
2022-11-02T10:06:09.729Z,0.57
2022-11-02T10:08:24.055Z,1.40
2022-11-02T10:10:32.401Z,1.70
2022-11-02T10:13:02.498Z,1.30
2022-11-02T10:15:20.598Z,0.93
2022-11-02T10:17:27.594Z,1.55
2022-11-02T10:19:41.120Z,1.13
2022-11-02T10:21:47.755Z,2.45
2022-11-02T10:23:58.311Z,1.00
2022-11-02T10:26:02.626Z,1.35
2022-11-02T10:28:17.107Z,4.13
2022-11-02T10:30:21.498Z,0.98
2022-11-02T10:32:24.291Z,0.60
2022-11-02T10:34:29.020Z,1.52
2022-11-02T10:37:09.938Z,0.63
2022-11-02T10:39:23.547Z,1.25
2022-11-02T10:41:59.232Z,1.40
2022-11-02T10:44:39.474Z,1.17
2022-11-02T10:47:01.808Z,1.83
2022-11-02T10:49:28.961Z,3.28
2022-11-02T10:51:31.829Z,1.05
2022-11-02T10:53:42.713Z,1.75
2022-11-02T10:56:04.511Z,1.27
2022-11-02T10:58:13.300Z,1.30
2022-11-02T11:00:32.875Z,1.30
2022-11-02T11:02:35.590Z,2.05
2022-11-02T11:04:38.189Z,0.98
2022-11-02T11:06:42.962Z,2.58
2022-11-02T11:08:50.101Z,0.95
2022-11-02T11:10:52.851Z,1.35
2022-11-02T11:12:56.414Z,1.88
2022-11-02T11:20:02.728Z,1.00
2022-11-02T11:22:45.511Z,1.08
2022-11-02T11:24:48.190Z,0.70
2022-11-02T11:27:13.124Z,1.33
2022-11-02T11:29:23.331Z,1.65
2022-11-02T11:31:26.381Z,1.30
2022-11-02T11:33:30.550Z,2.88
2022-11-02T11:35:34.194Z,1.17
2022-11-02T11:37:37.533Z,1.58
2022-11-02T11:39:42.952Z,0.75
2022-11-02T11:41:45.680Z,1.67
2022-11-02T11:43:50.487Z,1.20
2022-11-02T11:46:06.867Z,1.27
2022-11-02T11:48:28.339Z,1.05
2022-11-02T11:50:31.172Z,1.05
2022-11-02T11:52:34.684Z,0.90
2022-11-02T11:54:38.854Z,2.15
2022-11-02T11:56:41.547Z,0.70
2022-11-02T11:58:51.458Z,1.67
2022-11-02T12:01:12.335Z,1.02
2022-11-02T12:03:16.476Z,1.35
2022-11-02T12:05:21.084Z,1.30
2022-11-02T12:07:57.437Z,0.77
2022-11-02T12:10:08.923Z,0.85
2022-11-02T12:12:21.317Z,2.00
2022-11-02T12:14:38.155Z,0.95
2022-11-02T12:16:46.299Z,1.15
2022-11-02T12:19:10.459Z,0.73
2022-11-02T12:21:35.889Z,2.33
2022-11-02T12:24:07.667Z,0.55
2022-11-02T12:26:37.801Z,0.75
2022-11-02T12:29:08.415Z,1.33
2022-11-02T12:31:36.856Z,0.70
2022-11-02T12:34:11.550Z,1.17
2022-11-02T12:36:35.174Z,1.52
2022-11-02T12:38:49.828Z,1.05
2022-11-02T12:41:08.846Z,0.68
2022-11-02T12:43:20.076Z,0.82
2022-11-02T12:45:37.637Z,0.75
2022-11-02T12:47:58.374Z,0.93
2022-11-02T12:50:08.831Z,0.75
2022-11-02T12:52:29.535Z,0.95
2022-11-02T12:54:41.897Z,0.88
2022-11-02T12:56:49.449Z,1.48
2022-11-02T12:58:52.382Z,0.85
2022-11-02T13:01:13.289Z,1.88
2022-11-02T13:03:21.942Z,2.35
2022-11-02T13:05:33.037Z,0.68
2022-11-02T13:07:42.957Z,1.13
2022-11-02T13:10:15.034Z,3.40
2022-11-02T13:12:21.928Z,2.40
2022-11-02T13:14:27.754Z,1.70
2022-11-02T13:17:01.692Z,1.10
2022-11-02T13:19:05.544Z,3.08
2022-11-02T13:21:08.490Z,1.00
2022-11-02T13:23:20.172Z,7.15
2022-11-02T13:25:30.516Z,1.33
2022-11-02T13:27:42.290Z,1.17
2022-11-02T13:29:49.007Z,1.25
2022-11-02T13:32:02.372Z,1.10
2022-11-02T13:34:14.528Z,3.17
2022-11-02T13:36:17.364Z,7.00
2022-11-02T13:38:27.247Z,1.25
2022-11-02T13:41:05.580Z,2.50
2022-11-02T13:43:26.055Z,1.73
2022-11-02T13:45:38.452Z,3.28
2022-11-02T13:48:15.587Z,3.35
2022-11-02T13:50:21.966Z,1.65
2022-11-02T13:52:41.683Z,2.15
2022-11-02T13:55:01.074Z,1.40
2022-11-02T13:57:04.227Z,20.67
2022-11-02T13:59:21.974Z,1.73
2022-11-02T14:01:26.023Z,1.08
2022-11-02T14:03:47.962Z,9.52
2022-11-02T14:05:59.574Z,0.50
2022-11-02T14:08:05.693Z,1.02
2022-11-02T14:10:19.186Z,1.73
2022-11-02T14:12:21.734Z,1.08
2022-11-02T14:14:25.697Z,2.58
2022-11-02T14:16:47.624Z,1.58
2022-11-02T14:19:18.042Z,9.75
2022-11-02T14:21:42.327Z,0.82
2022-11-02T14:23:44.978Z,0.95
2022-11-02T14:25:49.973Z,0.95
2022-11-02T14:27:55.035Z,0.57
2022-11-02T14:29:58.409Z,0.77
2022-11-02T14:32:09.376Z,0.70
2022-11-02T14:34:25.369Z,1.70
2022-11-02T14:36:54.017Z,0.88
2022-11-02T14:38:59.278Z,0.70
2022-11-02T14:41:19.967Z,3.03
2022-11-02T14:43:47.198Z,7.30
2022-11-02T14:46:10.631Z,5.82
2022-11-02T14:48:17.187Z,1.83
2022-11-02T14:50:21.385Z,1.73
2022-11-02T14:52:30.337Z,1.65
2022-11-02T14:54:39.948Z,1.55
2022-11-02T14:57:07.926Z,1.45
2022-11-02T14:59:36.653Z,12.00
2022-11-02T15:01:54.293Z,1.45
2022-11-02T15:03:56.934Z,1.42
2022-11-02T15:06:17.769Z,4.05
2022-11-02T15:08:27.447Z,1.88
2022-11-02T15:10:33.143Z,22.33
2022-11-02T15:12:39.830Z,1.30
2022-11-02T15:14:42.841Z,11.75
2022-11-02T15:16:45.692Z,3.78
2022-11-02T15:18:48.473Z,396.08
2022-11-02T15:21:13.153Z,9.27
2022-11-02T15:23:31.168Z,10.02
2022-11-02T15:25:46.577Z,4.15
2022-11-02T15:27:52.553Z,12.93
2022-11-02T15:29:55.287Z,7.05
2022-11-02T15:31:59.190Z,35.00
2022-11-02T15:34:12.422Z,35.15
2022-11-02T15:36:22.195Z,7.40
2022-11-02T15:38:33.943Z,8.82
2022-11-02T15:40:58.117Z,48.05
2022-11-02T15:43:24.040Z,8.48
2022-11-02T15:45:59.318Z,36.30
2022-11-02T15:48:23.137Z,7.32
2022-11-02T15:50:31.699Z,6.13
2022-11-02T15:53:08.750Z,11.95
2022-11-02T15:55:21.675Z,7.65
2022-11-02T15:57:38.804Z,30.42
2022-11-02T16:00:04.265Z,25.85
2022-11-02T16:02:06.958Z,37.97
2022-11-02T16:04:19.817Z,37.38
2022-11-02T16:06:28.474Z,3.75
2022-11-02T16:08:38.117Z,4.47
2022-11-02T16:10:40.714Z,47.13
2022-11-02T16:12:43.362Z,11.98
2022-11-02T16:14:53.849Z,29.35
2022-11-02T16:16:56.451Z,17.35
2022-11-02T16:18:59.052Z,4.75
2022-11-02T16:21:04.217Z,13.35
2022-11-02T16:23:13.118Z,4.28
2022-11-02T16:25:35.126Z,4.32
2022-11-02T16:27:41.430Z,5.60
2022-11-02T16:29:44.229Z,2.65
2022-11-02T16:31:47.015Z,2.97
2022-11-02T16:33:53.747Z,3.35
2022-11-02T16:35:56.575Z,2.83
2022-11-02T16:37:59.333Z,2.97
2022-11-02T16:40:02.453Z,3.35
2022-11-02T16:42:15.483Z,2.85
2022-11-02T16:44:28.692Z,2.88
2022-11-02T16:46:42.060Z,1.75
2022-11-02T16:49:15.476Z,3.20
2022-11-02T16:51:19.231Z,2.42
2022-11-02T16:53:29.379Z,3.97
2022-11-02T16:55:39.513Z,2.92
2022-11-02T16:57:46.293Z,2.92
2022-11-02T17:00:05.438Z,3.33
2022-11-02T17:02:12.806Z,3.40
2022-11-02T17:04:20.410Z,3.88
2022-11-02T17:06:23.222Z,8.48
2022-11-02T17:08:36.529Z,3.67
2022-11-02T17:10:39.886Z,3.67
2022-11-02T17:12:45.531Z,4.80
2022-11-02T17:14:50.446Z,3.97
2022-11-02T17:17:00.656Z,6.45
2022-11-02T17:19:04.218Z,5.18
2022-11-02T17:21:12.896Z,3.35
2022-11-02T17:23:34.976Z,14.57
2022-11-02T17:25:39.979Z,3.95
2022-11-02T17:27:42.920Z,4.03
2022-11-02T17:29:45.603Z,5.15
2022-11-02T17:31:56.580Z,4.25
2022-11-02T17:34:02.780Z,6.30
2022-11-02T17:36:07.996Z,4.13
2022-11-02T17:38:10.781Z,4.20
2022-11-02T17:40:13.846Z,4.90
2022-11-02T17:42:36.322Z,5.10
2022-11-02T17:44:39.163Z,4.35
2022-11-02T17:46:44.777Z,5.38
2022-11-02T17:48:48.836Z,5.47
2022-11-02T17:50:56.748Z,5.63
2022-11-02T17:53:01.013Z,4.47
2022-11-02T17:55:03.859Z,3.92
2022-11-02T17:57:13.119Z,4.35
2022-11-02T17:59:15.793Z,4.63
2022-11-02T18:01:18.820Z,7.05
2022-11-02T18:03:25.448Z,5.70
2022-11-02T18:05:35.554Z,7.07
2022-11-02T18:07:38.136Z,5.72
2022-11-02T18:09:40.895Z,5.15
2022-11-02T18:11:43.471Z,7.97
2022-11-02T18:13:46.139Z,4.75
2022-11-02T18:15:49.516Z,6.75
2022-11-02T18:17:52.397Z,6.63
2022-11-02T18:19:55.379Z,10.30
2022-11-02T18:21:58.106Z,179.48
2022-11-02T18:24:00.700Z,20.55
2022-11-02T18:26:03.500Z,50.50
2022-11-02T18:28:06.646Z,16.67
2022-11-02T18:30:14.426Z,16.63
2022-11-02T18:32:17.276Z,8.13
2022-11-02T18:34:19.906Z,15.48
2022-11-02T18:36:22.914Z,9.57
2022-11-02T18:38:25.581Z,14.27
2022-11-02T18:40:34.209Z,6.60
2022-11-02T18:42:39.148Z,12.90
2022-11-02T18:44:41.853Z,6.05
2022-11-02T18:46:44.423Z,6.88
2022-11-02T18:48:47.570Z,5.60
2022-11-02T18:50:50.201Z,5.57
2022-11-02T18:52:52.876Z,5.25
2022-11-02T18:54:56.249Z,6.20
2022-11-02T18:56:59.021Z,6.82
2022-11-02T18:59:01.715Z,5.18
2022-11-02T19:01:13.349Z,5.72
2022-11-02T19:03:18.338Z,6.15
2022-11-02T19:05:39.719Z,5.20
2022-11-02T19:08:00.725Z,10.93
2022-11-02T19:10:04.357Z,13.57
2022-11-02T19:12:11.639Z,4.78
2022-11-02T19:14:14.276Z,6.40
2022-11-02T19:16:16.984Z,3.85
2022-11-02T19:18:19.591Z,2.60
2022-11-02T19:20:22.202Z,4.07
2022-11-02T19:22:26.577Z,5.50
2022-11-02T19:24:29.611Z,3.33
2022-11-02T19:26:32.996Z,4.35
2022-11-02T19:28:35.785Z,3.83
2022-11-02T19:30:38.700Z,3.42
2022-11-02T19:32:41.291Z,3.78
2022-11-02T19:34:44.047Z,9.20
2022-11-02T19:36:46.648Z,5.20
2022-11-02T19:38:49.228Z,8.85
2022-11-02T19:41:17.751Z,4.22
2022-11-02T19:43:20.342Z,4.28
2022-11-02T19:45:22.937Z,7.25
2022-11-02T19:47:26.795Z,6.20
2022-11-02T19:49:29.504Z,5.75
2022-11-02T19:51:32.364Z,5.00
2022-11-02T19:53:35.585Z,3.03
2022-11-02T19:55:38.128Z,7.03
2022-11-02T19:57:40.816Z,2.55
2022-11-02T19:59:43.384Z,6.00
2022-11-02T20:01:48.443Z,2.83
2022-11-02T20:03:52.493Z,3.60
2022-11-02T20:05:59.973Z,2.50
2022-11-02T20:08:02.836Z,3.72
2022-11-02T20:10:05.990Z,2.53
2022-11-02T20:12:08.616Z,6.85
2022-11-02T20:14:13.034Z,1.42
2022-11-02T20:16:18.681Z,5.72
2022-11-02T20:18:21.549Z,2.55
2022-11-02T20:20:24.686Z,5.22
2022-11-02T20:22:27.271Z,2.80
2022-11-02T20:24:29.881Z,2.90
2022-11-02T20:26:36.183Z,4.65
2022-11-02T20:28:40.658Z,3.75
2022-11-02T20:30:43.804Z,1.95
2022-11-02T20:32:46.487Z,2.10
2022-11-02T20:34:49.062Z,3.63
2022-11-02T20:36:51.743Z,1.80
2022-11-02T20:38:55.032Z,1.77
2022-11-02T20:41:15.247Z,2.17
2022-11-02T20:43:20.184Z,1.80
2022-11-02T20:45:24.793Z,1.83
2022-11-02T20:47:28.393Z,5.25
2022-11-02T20:51:54.348Z,1.80
2022-11-02T20:53:57.567Z,2.65
2022-11-02T20:56:01.081Z,2.30
2022-11-02T20:58:04.119Z,1.95
2022-11-02T21:00:07.384Z,3.00
2022-11-02T21:02:11.855Z,13.80
2022-11-02T21:04:20.203Z,1.90
2022-11-02T21:06:23.714Z,1.88
2022-11-02T21:08:26.325Z,5.57
2022-11-02T21:10:29.309Z,3.13
2022-11-02T21:12:50.671Z,2.28
2022-11-02T21:14:53.467Z,3.38
2022-11-02T21:16:56.170Z,4.18
2022-11-02T21:18:58.935Z,2.20
2022-11-02T21:21:25.830Z,3.17
2022-11-02T21:23:28.394Z,2.88
2022-11-02T21:25:33.261Z,3.63
2022-11-02T21:27:35.886Z,4.50
2022-11-02T21:29:38.835Z,3.78
2022-11-02T21:31:41.620Z,2.85
2022-11-02T21:33:45.881Z,3.80
2022-11-02T21:35:48.570Z,3.00
2022-11-02T21:37:55.895Z,3.38
2022-11-02T21:39:58.470Z,1.70
2022-11-02T21:42:01.599Z,2.38
2022-11-02T21:44:07.248Z,2.70
2022-11-02T21:46:09.893Z,1.58
2022-11-02T21:48:12.586Z,2.97
2022-11-02T21:50:15.150Z,3.33
2022-11-02T21:52:17.866Z,3.05
2022-11-02T21:54:20.632Z,2.97
2022-11-02T21:56:30.823Z,4.05
2022-11-02T21:58:34.135Z,3.35
2022-11-02T22:00:55.729Z,2.17
2022-11-02T22:02:58.707Z,2.22
2022-11-02T22:05:01.328Z,2.97
2022-11-02T22:07:05.281Z,2.78
2022-11-02T22:09:10.677Z,1.83
2022-11-02T22:11:15.962Z,5.15
2022-11-02T22:13:33.534Z,2.00
2022-11-02T22:15:38.414Z,2.38
2022-11-02T22:17:49.724Z,2.42
2022-11-02T22:19:52.762Z,3.83
2022-11-02T22:21:55.390Z,14.48
2022-11-02T22:23:59.096Z,9.45
2022-11-02T22:26:05.386Z,5.82
2022-11-02T22:28:08.031Z,11.88
2022-11-02T22:30:11.347Z,42.25
2022-11-02T22:32:14.770Z,9.25
2022-11-02T22:34:17.554Z,129.80
2022-11-02T22:36:22.481Z,155.80
2022-11-02T22:38:43.624Z,60.38
2022-11-02T22:40:48.260Z,125.95
2022-11-02T22:42:54.629Z,150.60
2022-11-02T22:44:58.701Z,197.45
2022-11-02T22:47:01.312Z,197.48
2022-11-02T22:49:04.976Z,153.52
2022-11-02T22:51:08.653Z,277.42
2022-11-02T22:53:11.847Z,200.05
2022-11-02T22:55:14.542Z,204.88
2022-11-02T22:57:17.125Z,199.50
2022-11-02T22:59:21.100Z,240.77
2022-11-02T23:01:26.398Z,218.30
2022-11-02T23:03:33.889Z,205.90
2022-11-02T23:05:38.150Z,172.88
2022-11-02T23:07:40.759Z,261.65
2022-11-02T23:09:43.339Z,329.60
2022-11-02T23:11:46.012Z,265.10
2022-11-02T23:14:06.998Z,251.95
2022-11-02T23:16:22.758Z,282.60
2022-11-02T23:18:45.346Z,231.18
2022-11-02T23:20:51.995Z,193.52
2022-11-02T23:23:17.356Z,104.85
2022-11-02T23:25:20.267Z,56.22
2022-11-02T23:27:23.175Z,47.33
2022-11-02T23:29:44.145Z,19.38
2022-11-02T23:32:05.042Z,17.58
2022-11-02T23:34:07.659Z,3.90
2022-11-02T23:36:13.997Z,1.45
2022-11-02T23:38:16.911Z,1.77
2022-11-02T23:40:19.760Z,2.42
2022-11-02T23:42:23.765Z,1.20
2022-11-02T23:44:29.414Z,1.40
2022-11-02T23:46:32.019Z,2.25
2022-11-02T23:48:34.607Z,1.38
2022-11-02T23:50:55.830Z,0.98
2022-11-02T23:53:16.786Z,1.37
2022-11-02T23:55:37.653Z,0.95
2022-11-02T23:57:40.635Z,1.02
2022-11-02T23:59:43.268Z,9.73
